sensor_id;sensor_type;location;lat;lon;timestamp;pressure;altitude;pressure_sealevel;temperature
60731;BMP280;46580;52.114;11.674;2023-04-28T00:02:12;101324.59;;;7.14
60731;BMP280;46580;52.114;11.674;2023-04-28T00:04:37;101321.44;;;7.09
60731;BMP280;46580;52.114;11.674;2023-04-28T00:07:03;101316.50;;;7.06
60731;BMP280;46580;52.114;11.674;2023-04-28T00:09:28;101315.91;;;7.02
60731;BMP280;46580;52.114;11.674;2023-04-28T00:11:53;101310.38;;;6.94
60731;BMP280;46580;52.114;11.674;2023-04-28T00:14:19;101312.34;;;6.89
60731;BMP280;46580;52.114;11.674;2023-04-28T00:16:44;101308.72;;;6.93
60731;BMP280;46580;52.114;11.674;2023-04-28T00:19:09;101295.63;;;7.14
60731;BMP280;46580;52.114;11.674;2023-04-28T00:21:35;101294.81;;;7.13
60731;BMP280;46580;52.114;11.674;2023-04-28T00:24:00;101287.69;;;7.03
60731;BMP280;46580;52.114;11.674;2023-04-28T00:26:25;101285.44;;;6.97
60731;BMP280;46580;52.114;11.674;2023-04-28T00:28:51;101278.13;;;7.06
60731;BMP280;46580;52.114;11.674;2023-04-28T00:31:16;101284.47;;;7.00
60731;BMP280;46580;52.114;11.674;2023-04-28T00:33:42;101284.88;;;7.07
60731;BMP280;46580;52.114;11.674;2023-04-28T00:36:08;101283.78;;;6.96
60731;BMP280;46580;52.114;11.674;2023-04-28T00:38:33;101281.81;;;6.86
60731;BMP280;46580;52.114;11.674;2023-04-28T00:40:59;101281.69;;;6.72
60731;BMP280;46580;52.114;11.674;2023-04-28T00:43:24;101284.41;;;6.69
60731;BMP280;46580;52.114;11.674;2023-04-28T00:45:50;101281.00;;;6.69
60731;BMP280;46580;52.114;11.674;2023-04-28T00:48:16;101277.63;;;6.68
60731;BMP280;46580;52.114;11.674;2023-04-28T00:50:43;101270.75;;;6.86
60731;BMP280;46580;52.114;11.674;2023-04-28T00:53:09;101266.03;;;6.78
60731;BMP280;46580;52.114;11.674;2023-04-28T00:55:36;101256.94;;;6.73
60731;BMP280;46580;52.114;11.674;2023-04-28T00:58:02;101263.69;;;6.59
60731;BMP280;46580;52.114;11.674;2023-04-28T01:00:27;101270.22;;;6.48
60731;BMP280;46580;52.114;11.674;2023-04-28T01:02:54;101263.00;;;6.55
60731;BMP280;46580;52.114;11.674;2023-04-28T01:05:19;101260.94;;;6.62
60731;BMP280;46580;52.114;11.674;2023-04-28T01:07:44;101261.19;;;6.57
60731;BMP280;46580;52.114;11.674;2023-04-28T01:10:10;101252.63;;;6.58
60731;BMP280;46580;52.114;11.674;2023-04-28T01:12:35;101255.31;;;6.55
60731;BMP280;46580;52.114;11.674;2023-04-28T01:15:01;101260.75;;;6.49
60731;BMP280;46580;52.114;11.674;2023-04-28T01:17:26;101244.91;;;6.43
60731;BMP280;46580;52.114;11.674;2023-04-28T01:19:52;101243.25;;;6.42
60731;BMP280;46580;52.114;11.674;2023-04-28T01:22:17;101243.81;;;6.47
60731;BMP280;46580;52.114;11.674;2023-04-28T01:24:43;101245.25;;;6.52
60731;BMP280;46580;52.114;11.674;2023-04-28T01:27:08;101249.38;;;6.55
60731;BMP280;46580;52.114;11.674;2023-04-28T01:29:33;101247.22;;;6.48
60731;BMP280;46580;52.114;11.674;2023-04-28T01:31:59;101245.25;;;6.52
60731;BMP280;46580;52.114;11.674;2023-04-28T01:34:25;101240.66;;;6.59
60731;BMP280;46580;52.114;11.674;2023-04-28T01:36:51;101245.09;;;6.55
60731;BMP280;46580;52.114;11.674;2023-04-28T01:39:16;101247.53;;;6.73
60731;BMP280;46580;52.114;11.674;2023-04-28T01:41:41;101248.41;;;6.57
60731;BMP280;46580;52.114;11.674;2023-04-28T01:44:07;101238.50;;;6.51
60731;BMP280;46580;52.114;11.674;2023-04-28T01:46:33;101229.41;;;6.46
60731;BMP280;46580;52.114;11.674;2023-04-28T01:48:58;101234.75;;;6.42
60731;BMP280;46580;52.114;11.674;2023-04-28T01:51:23;101236.47;;;6.41
60731;BMP280;46580;52.114;11.674;2023-04-28T01:53:49;101236.47;;;6.41
60731;BMP280;46580;52.114;11.674;2023-04-28T01:56:14;101226.41;;;6.38
60731;BMP280;46580;52.114;11.674;2023-04-28T01:58:40;101224.75;;;6.37
60731;BMP280;46580;52.114;11.674;2023-04-28T02:01:06;101222.22;;;6.37
60731;BMP280;46580;52.114;11.674;2023-04-28T02:03:31;101212.69;;;6.56
60731;BMP280;46580;52.114;11.674;2023-04-28T02:05:57;101216.00;;;6.41
60731;BMP280;46580;52.114;11.674;2023-04-28T02:08:22;101201.75;;;6.37
60731;BMP280;46580;52.114;11.674;2023-04-28T02:10:47;101213.78;;;6.35
60731;BMP280;46580;52.114;11.674;2023-04-28T02:13:13;101210.19;;;6.23
60731;BMP280;46580;52.114;11.674;2023-04-28T02:15:40;101215.63;;;6.17
60731;BMP280;46580;52.114;11.674;2023-04-28T02:18:05;101213.91;;;6.17
60731;BMP280;46580;52.114;11.674;2023-04-28T02:20:30;101205.34;;;6.18
60731;BMP280;46580;52.114;11.674;2023-04-28T02:22:56;101195.38;;;6.29
60731;BMP280;46580;52.114;11.674;2023-04-28T02:25:21;101199.03;;;6.40
60731;BMP280;46580;52.114;11.674;2023-04-28T02:27:46;101198.72;;;6.46
60731;BMP280;46580;52.114;11.674;2023-04-28T02:30:12;101197.41;;;6.39
60731;BMP280;46580;52.114;11.674;2023-04-28T02:32:37;101203.81;;;6.31
60731;BMP280;46580;52.114;11.674;2023-04-28T02:35:03;101207.00;;;6.19
60731;BMP280;46580;52.114;11.674;2023-04-28T02:37:29;101201.94;;;6.18
60731;BMP280;46580;52.114;11.674;2023-04-28T02:39:54;101195.19;;;6.17
60731;BMP280;46580;52.114;11.674;2023-04-28T02:42:19;101195.94;;;6.19
60731;BMP280;46580;52.114;11.674;2023-04-28T02:44:45;101189.38;;;6.13
60731;BMP280;46580;52.114;11.674;2023-04-28T02:47:10;101180.00;;;6.14
60731;BMP280;46580;52.114;11.674;2023-04-28T02:49:36;101181.34;;;6.21
60731;BMP280;46580;52.114;11.674;2023-04-28T02:52:01;101177.84;;;6.38
60731;BMP280;46580;52.114;11.674;2023-04-28T02:54:26;101173.28;;;6.28
60731;BMP280;46580;52.114;11.674;2023-04-28T02:56:55;101177.44;;;6.14
60731;BMP280;46580;52.114;11.674;2023-04-28T02:59:22;101182.66;;;6.13
60731;BMP280;46580;52.114;11.674;2023-04-28T03:01:47;101176.72;;;6.12
60731;BMP280;46580;52.114;11.674;2023-04-28T03:04:13;101174.16;;;6.12
60731;BMP280;46580;52.114;11.674;2023-04-28T03:06:39;101166.63;;;6.09
60731;BMP280;46580;52.114;11.674;2023-04-28T03:09:05;101166.50;;;6.12
60731;BMP280;46580;52.114;11.674;2023-04-28T03:11:30;101156.34;;;6.11
60731;BMP280;46580;52.114;11.674;2023-04-28T03:13:56;101145.88;;;6.15
60731;BMP280;46580;52.114;11.674;2023-04-28T03:16:21;101153.31;;;6.19
60731;BMP280;46580;52.114;11.674;2023-04-28T03:18:46;101149.94;;;6.19
60731;BMP280;46580;52.114;11.674;2023-04-28T03:21:12;101143.50;;;6.12
60731;BMP280;46580;52.114;11.674;2023-04-28T03:23:37;101147.53;;;6.16
60731;BMP280;46580;52.114;11.674;2023-04-28T03:26:03;101139.28;;;6.11
60731;BMP280;46580;52.114;11.674;2023-04-28T03:28:28;101135.97;;;6.09
60731;BMP280;46580;52.114;11.674;2023-04-28T03:30:53;101126.50;;;6.11
60731;BMP280;46580;52.114;11.674;2023-04-28T03:33:19;101126.25;;;6.15
60731;BMP280;46580;52.114;11.674;2023-04-28T03:35:44;101123.94;;;6.11
60731;BMP280;46580;52.114;11.674;2023-04-28T03:38:09;101120.50;;;6.12
60731;BMP280;46580;52.114;11.674;2023-04-28T03:40:35;101120.88;;;6.05
60731;BMP280;46580;52.114;11.674;2023-04-28T03:43:01;101125.16;;;6.04
60731;BMP280;46580;52.114;11.674;2023-04-28T03:45:27;101114.69;;;6.09
60731;BMP280;46580;52.114;11.674;2023-04-28T03:47:52;101119.88;;;6.07
60731;BMP280;46580;52.114;11.674;2023-04-28T03:50:18;101110.72;;;6.03
60731;BMP280;46580;52.114;11.674;2023-04-28T03:52:43;101113.53;;;5.99
60731;BMP280;46580;52.114;11.674;2023-04-28T03:55:08;101109.41;;;5.96
60731;BMP280;46580;52.114;11.674;2023-04-28T03:57:34;101112.94;;;5.94
60731;BMP280;46580;52.114;11.674;2023-04-28T04:00:00;101112.19;;;5.92
60731;BMP280;46580;52.114;11.674;2023-04-28T04:02:25;101111.50;;;5.89
60731;BMP280;46580;52.114;11.674;2023-04-28T04:04:51;101104.69;;;5.89
60731;BMP280;46580;52.114;11.674;2023-04-28T04:07:17;101100.97;;;5.94
60731;BMP280;46580;52.114;11.674;2023-04-28T04:09:42;101096.94;;;5.91
60731;BMP280;46580;52.114;11.674;2023-04-28T04:12:07;101090.75;;;5.94
60731;BMP280;46580;52.114;11.674;2023-04-28T04:14:32;101092.72;;;5.90
60731;BMP280;46580;52.114;11.674;2023-04-28T04:16:58;101098.41;;;5.94
60731;BMP280;46580;52.114;11.674;2023-04-28T04:19:24;101097.16;;;6.18
60731;BMP280;46580;52.114;11.674;2023-04-28T04:21:51;101102.09;;;6.06
60731;BMP280;46580;52.114;11.674;2023-04-28T04:24:17;101106.25;;;5.92
60731;BMP280;46580;52.114;11.674;2023-04-28T04:26:42;101094.84;;;5.82
60731;BMP280;46580;52.114;11.674;2023-04-28T04:29:07;101089.91;;;5.79
60731;BMP280;46580;52.114;11.674;2023-04-28T04:31:33;101092.03;;;5.71
60731;BMP280;46580;52.114;11.674;2023-04-28T04:33:58;101084.19;;;5.74
60731;BMP280;46580;52.114;11.674;2023-04-28T04:36:23;101083.97;;;5.78
60731;BMP280;46580;52.114;11.674;2023-04-28T04:38:49;101085.09;;;5.73
60731;BMP280;46580;52.114;11.674;2023-04-28T04:41:14;101085.34;;;5.69
60731;BMP280;46580;52.114;11.674;2023-04-28T04:43:39;101084.72;;;5.64
60731;BMP280;46580;52.114;11.674;2023-04-28T04:46:05;101079.94;;;5.58
60731;BMP280;46580;52.114;11.674;2023-04-28T04:48:30;101076.19;;;5.65
60731;BMP280;46580;52.114;11.674;2023-04-28T04:50:55;101073.69;;;5.63
60731;BMP280;46580;52.114;11.674;2023-04-28T04:53:21;101078.94;;;5.60
60731;BMP280;46580;52.114;11.674;2023-04-28T04:55:46;101079.81;;;5.59
60731;BMP280;46580;52.114;11.674;2023-04-28T04:58:11;101073.47;;;5.68
60731;BMP280;46580;52.114;11.674;2023-04-28T05:00:37;101071.41;;;5.74
60731;BMP280;46580;52.114;11.674;2023-04-28T05:03:03;101064.59;;;5.75
60731;BMP280;46580;52.114;11.674;2023-04-28T05:05:30;101073.41;;;5.69
60731;BMP280;46580;52.114;11.674;2023-04-28T05:07:55;101072.63;;;5.84
60731;BMP280;46580;52.114;11.674;2023-04-28T05:10:21;101071.22;;;5.93
60731;BMP280;46580;52.114;11.674;2023-04-28T05:12:46;101070.00;;;6.00
60731;BMP280;46580;52.114;11.674;2023-04-28T05:15:12;101066.03;;;5.95
60731;BMP280;46580;52.114;11.674;2023-04-28T05:17:37;101065.53;;;5.89
60731;BMP280;46580;52.114;11.674;2023-04-28T05:20:03;101061.22;;;6.06
60731;BMP280;46580;52.114;11.674;2023-04-28T05:22:28;101066.16;;;6.09
60731;BMP280;46580;52.114;11.674;2023-04-28T05:24:55;101063.75;;;6.21
60731;BMP280;46580;52.114;11.674;2023-04-28T05:27:20;101059.16;;;6.27
60731;BMP280;46580;52.114;11.674;2023-04-28T05:29:46;101055.84;;;6.40
60731;BMP280;46580;52.114;11.674;2023-04-28T05:32:11;101057.16;;;6.47
60731;BMP280;46580;52.114;11.674;2023-04-28T05:34:36;101056.84;;;6.68
60731;BMP280;46580;52.114;11.674;2023-04-28T05:37:02;101055.44;;;6.78
60731;BMP280;46580;52.114;11.674;2023-04-28T05:39:27;101046.00;;;6.93
60731;BMP280;46580;52.114;11.674;2023-04-28T05:41:52;101042.44;;;6.81
60731;BMP280;46580;52.114;11.674;2023-04-28T05:44:18;101049.88;;;6.85
60731;BMP280;46580;52.114;11.674;2023-04-28T05:46:43;101047.19;;;7.02
60731;BMP280;46580;52.114;11.674;2023-04-28T05:49:09;101041.72;;;7.07
60731;BMP280;46580;52.114;11.674;2023-04-28T05:51:34;101050.00;;;7.12
60731;BMP280;46580;52.114;11.674;2023-04-28T05:54:00;101045.34;;;7.19
60731;BMP280;46580;52.114;11.674;2023-04-28T05:56:25;101037.28;;;7.11
60731;BMP280;46580;52.114;11.674;2023-04-28T05:58:51;101031.31;;;7.10
60731;BMP280;46580;52.114;11.674;2023-04-28T06:01:16;101039.78;;;7.26
60731;BMP280;46580;52.114;11.674;2023-04-28T06:03:42;101028.56;;;7.42
60731;BMP280;46580;52.114;11.674;2023-04-28T06:06:09;101028.47;;;7.43
60731;BMP280;46580;52.114;11.674;2023-04-28T06:08:35;101035.25;;;7.58
60731;BMP280;46580;52.114;11.674;2023-04-28T06:11:01;101029.22;;;7.59
60731;BMP280;46580;52.114;11.674;2023-04-28T06:13:26;101036.09;;;7.72
60731;BMP280;46580;52.114;11.674;2023-04-28T06:15:51;101031.06;;;7.84
60731;BMP280;46580;52.114;11.674;2023-04-28T06:18:17;101025.03;;;7.99
60731;BMP280;46580;52.114;11.674;2023-04-28T06:20:42;101027.22;;;7.91
60731;BMP280;46580;52.114;11.674;2023-04-28T06:23:08;101008.28;;;7.94
60731;BMP280;46580;52.114;11.674;2023-04-28T06:25:34;101015.50;;;8.28
60731;BMP280;46580;52.114;11.674;2023-04-28T06:28:00;101007.03;;;8.40
60731;BMP280;46580;52.114;11.674;2023-04-28T06:30:25;101007.47;;;8.46
60731;BMP280;46580;52.114;11.674;2023-04-28T06:32:51;101006.41;;;8.62
60731;BMP280;46580;52.114;11.674;2023-04-28T06:35:16;101006.91;;;8.93
60731;BMP280;46580;52.114;11.674;2023-04-28T06:37:42;101000.78;;;9.08
60731;BMP280;46580;52.114;11.674;2023-04-28T06:40:08;101004.59;;;9.14
60731;BMP280;46580;52.114;11.674;2023-04-28T06:42:33;101003.44;;;9.30
60731;BMP280;46580;52.114;11.674;2023-04-28T06:44:59;100999.16;;;9.43
60731;BMP280;46580;52.114;11.674;2023-04-28T06:47:24;101000.59;;;9.47
60731;BMP280;46580;52.114;11.674;2023-04-28T06:49:49;100994.13;;;9.90
60731;BMP280;46580;52.114;11.674;2023-04-28T06:52:15;100987.75;;;9.96
60731;BMP280;46580;52.114;11.674;2023-04-28T06:54:41;100985.38;;;9.93
60731;BMP280;46580;52.114;11.674;2023-04-28T06:57:06;100987.94;;;9.93
60731;BMP280;46580;52.114;11.674;2023-04-28T06:59:31;100984.53;;;9.92
60731;BMP280;46580;52.114;11.674;2023-04-28T07:01:57;100981.50;;;10.22
60731;BMP280;46580;52.114;11.674;2023-04-28T07:04:22;100985.81;;;10.22
60731;BMP280;46580;52.114;11.674;2023-04-28T07:06:47;100971.16;;;10.35
60731;BMP280;46580;52.114;11.674;2023-04-28T07:09:13;100966.19;;;10.44
60731;BMP280;46580;52.114;11.674;2023-04-28T07:11:40;100966.34;;;10.53
60731;BMP280;46580;52.114;11.674;2023-04-28T07:14:05;100954.28;;;10.77
60731;BMP280;46580;52.114;11.674;2023-04-28T07:16:32;100956.53;;;10.92
60731;BMP280;46580;52.114;11.674;2023-04-28T07:18:57;100955.28;;;10.97
60731;BMP280;46580;52.114;11.674;2023-04-28T07:21:22;100952.75;;;11.18
60731;BMP280;46580;52.114;11.674;2023-04-28T07:23:48;100946.25;;;11.47
60731;BMP280;46580;52.114;11.674;2023-04-28T07:26:13;100943.69;;;11.68
60731;BMP280;46580;52.114;11.674;2023-04-28T07:28:40;100935.38;;;11.65
60731;BMP280;46580;52.114;11.674;2023-04-28T07:31:06;100939.47;;;11.67
60731;BMP280;46580;52.114;11.674;2023-04-28T07:33:31;100936.06;;;11.99
60731;BMP280;46580;52.114;11.674;2023-04-28T07:35:56;100930.41;;;11.94
60731;BMP280;46580;52.114;11.674;2023-04-28T07:38:22;100927.25;;;11.80
60731;BMP280;46580;52.114;11.674;2023-04-28T07:40:47;100925.03;;;11.86
60731;BMP280;46580;52.114;11.674;2023-04-28T07:43:13;100925.72;;;11.99
60731;BMP280;46580;52.114;11.674;2023-04-28T07:45:39;100923.34;;;12.07
60731;BMP280;46580;52.114;11.674;2023-04-28T07:48:04;100921.84;;;12.04
60731;BMP280;46580;52.114;11.674;2023-04-28T07:50:30;100924.69;;;11.90
60731;BMP280;46580;52.114;11.674;2023-04-28T07:52:57;100919.59;;;12.00
60731;BMP280;46580;52.114;11.674;2023-04-28T07:55:23;100916.00;;;11.91
60731;BMP280;46580;52.114;11.674;2023-04-28T07:57:48;100913.44;;;11.91
60731;BMP280;46580;52.114;11.674;2023-04-28T08:00:14;100908.13;;;12.04
60731;BMP280;46580;52.114;11.674;2023-04-28T08:02:39;100906.44;;;12.13
60731;BMP280;46580;52.114;11.674;2023-04-28T08:05:05;100911.00;;;12.21
60731;BMP280;46580;52.114;11.674;2023-04-28T08:07:33;100912.03;;;12.29
60731;BMP280;46580;52.114;11.674;2023-04-28T08:09:58;100911.19;;;12.39
60731;BMP280;46580;52.114;11.674;2023-04-28T08:12:25;100913.63;;;12.41
60731;BMP280;46580;52.114;11.674;2023-04-28T08:14:50;100901.88;;;12.78
60731;BMP280;46580;52.114;11.674;2023-04-28T08:17:16;100903.16;;;12.83
60731;BMP280;46580;52.114;11.674;2023-04-28T08:19:42;100896.34;;;12.82
60731;BMP280;46580;52.114;11.674;2023-04-28T08:22:10;100898.59;;;12.96
60731;BMP280;46580;52.114;11.674;2023-04-28T08:24:35;100890.66;;;13.08
60731;BMP280;46580;52.114;11.674;2023-04-28T08:27:01;100892.88;;;12.93
60731;BMP280;46580;52.114;11.674;2023-04-28T08:29:30;100894.69;;;13.01
60731;BMP280;46580;52.114;11.674;2023-04-28T08:31:56;100891.03;;;13.04
60731;BMP280;46580;52.114;11.674;2023-04-28T08:34:22;100897.09;;;13.14
60731;BMP280;46580;52.114;11.674;2023-04-28T08:36:47;100894.84;;;13.00
60731;BMP280;46580;52.114;11.674;2023-04-28T08:39:13;100900.44;;;13.05
60731;BMP280;46580;52.114;11.674;2023-04-28T08:41:38;100900.38;;;12.96
60731;BMP280;46580;52.114;11.674;2023-04-28T08:44:08;100898.59;;;12.96
60731;BMP280;46580;52.114;11.674;2023-04-28T08:46:34;100892.69;;;13.05
60731;BMP280;46580;52.114;11.674;2023-04-28T08:49:00;100899.50;;;13.06
60731;BMP280;46580;52.114;11.674;2023-04-28T08:51:33;100896.13;;;13.15
60731;BMP280;46580;52.114;11.674;2023-04-28T08:54:02;100893.28;;;13.18
60731;BMP280;46580;52.114;11.674;2023-04-28T08:56:31;100892.22;;;13.20
60731;BMP280;46580;52.114;11.674;2023-04-28T08:59:00;100887.53;;;13.14
60731;BMP280;46580;52.114;11.674;2023-04-28T09:01:26;100890.59;;;13.19
60731;BMP280;46580;52.114;11.674;2023-04-28T09:03:53;100886.47;;;13.17
60731;BMP280;46580;52.114;11.674;2023-04-28T09:06:18;100883.41;;;13.02
60731;BMP280;46580;52.114;11.674;2023-04-28T09:08:45;100884.59;;;13.19
60731;BMP280;46580;52.114;11.674;2023-04-28T09:11:11;100879.72;;;13.54
60731;BMP280;46580;52.114;11.674;2023-04-28T09:13:38;100876.53;;;13.41
60731;BMP280;46580;52.114;11.674;2023-04-28T09:16:04;100884.75;;;13.46
60731;BMP280;46580;52.114;11.674;2023-04-28T09:18:30;100881.69;;;13.41
60731;BMP280;46580;52.114;11.674;2023-04-28T09:21:07;100874.97;;;13.59
60731;BMP280;46580;52.114;11.674;2023-04-28T09:23:34;100881.50;;;13.54
60731;BMP280;46580;52.114;11.674;2023-04-28T09:26:04;100869.53;;;13.62
60731;BMP280;46580;52.114;11.674;2023-04-28T09:28:33;100873.22;;;13.69
60731;BMP280;46580;52.114;11.674;2023-04-28T09:30:58;100872.56;;;13.67
60731;BMP280;46580;52.114;11.674;2023-04-28T09:33:24;100870.19;;;13.84
60731;BMP280;46580;52.114;11.674;2023-04-28T09:35:50;100870.19;;;13.84
60731;BMP280;46580;52.114;11.674;2023-04-28T09:38:15;100862.63;;;13.72
60731;BMP280;46580;52.114;11.674;2023-04-28T09:41:00;100862.84;;;13.98
60731;BMP280;46580;52.114;11.674;2023-04-28T09:45:53;100857.38;;;13.92
60731;BMP280;46580;52.114;11.674;2023-04-28T09:48:32;100853.06;;;14.11
60731;BMP280;46580;52.114;11.674;2023-04-28T09:51:00;100854.94;;;13.90
60731;BMP280;46580;52.114;11.674;2023-04-28T09:53:26;100852.19;;;13.82
60731;BMP280;46580;52.114;11.674;2023-04-28T09:55:54;100850.94;;;13.77
60731;BMP280;46580;52.114;11.674;2023-04-28T09:58:20;100846.56;;;13.77
60731;BMP280;46580;52.114;11.674;2023-04-28T10:00:57;100845.31;;;14.01
60731;BMP280;46580;52.114;11.674;2023-04-28T10:03:25;100841.34;;;14.07
60731;BMP280;46580;52.114;11.674;2023-04-28T10:05:51;100829.34;;;14.06
60731;BMP280;46580;52.114;11.674;2023-04-28T10:08:21;100831.94;;;14.06
60731;BMP280;46580;52.114;11.674;2023-04-28T10:10:51;100826.34;;;14.10
60731;BMP280;46580;52.114;11.674;2023-04-28T10:13:19;100828.00;;;14.20
60731;BMP280;46580;52.114;11.674;2023-04-28T10:15:45;100828.81;;;14.30
60731;BMP280;46580;52.114;11.674;2023-04-28T10:18:12;100833.44;;;14.17
60731;BMP280;46580;52.114;11.674;2023-04-28T10:20:41;100835.91;;;14.19
60731;BMP280;46580;52.114;11.674;2023-04-28T10:25:55;100828.13;;;14.37
60731;BMP280;46580;52.114;11.674;2023-04-28T10:28:22;100828.81;;;14.30
60731;BMP280;46580;52.114;11.674;2023-04-28T10:31:23;100806.88;;;14.34
60731;BMP280;46580;52.114;11.674;2023-04-28T10:33:50;100813.28;;;14.30
60731;BMP280;46580;52.114;11.674;2023-04-28T10:36:51;100814.66;;;14.34
60731;BMP280;46580;52.114;11.674;2023-04-28T10:39:18;100806.75;;;14.26
60731;BMP280;46580;52.114;11.674;2023-04-28T10:41:47;100803.47;;;14.24
60731;BMP280;46580;52.114;11.674;2023-04-28T10:47:04;100798.28;;;14.15
60731;BMP280;46580;52.114;11.674;2023-04-28T10:55:33;100795.41;;;14.09
60731;BMP280;46580;52.114;11.674;2023-04-28T11:00:45;100787.66;;;13.90
60731;BMP280;46580;52.114;11.674;2023-04-28T11:06:25;100785.34;;;14.06
60731;BMP280;46580;52.114;11.674;2023-04-28T11:09:45;100784.13;;;14.10
60731;BMP280;46580;52.114;11.674;2023-04-28T11:19:22;100784.91;;;14.29
60731;BMP280;46580;52.114;11.674;2023-04-28T11:21:54;100777.03;;;14.39
60731;BMP280;46580;52.114;11.674;2023-04-28T11:24:22;100783.03;;;14.40
60731;BMP280;46580;52.114;11.674;2023-04-28T11:26:49;100773.63;;;14.20
60731;BMP280;46580;52.114;11.674;2023-04-28T11:29:15;100772.28;;;14.35
60731;BMP280;46580;52.114;11.674;2023-04-28T11:31:48;100779.34;;;14.33
60731;BMP280;46580;52.114;11.674;2023-04-28T11:34:18;100771.28;;;14.36
60731;BMP280;46580;52.114;11.674;2023-04-28T11:36:45;100773.19;;;14.62
60731;BMP280;46580;52.114;11.674;2023-04-28T11:39:11;100762.81;;;14.52
60731;BMP280;46580;52.114;11.674;2023-04-28T11:41:39;100762.78;;;14.71
60731;BMP280;46580;52.114;11.674;2023-04-28T11:44:16;100758.97;;;14.56
60731;BMP280;46580;52.114;11.674;2023-04-28T11:46:45;100757.94;;;14.40
60731;BMP280;46580;52.114;11.674;2023-04-28T11:49:15;100762.19;;;14.32
60731;BMP280;46580;52.114;11.674;2023-04-28T11:51:41;100762.88;;;14.34
60731;BMP280;46580;52.114;11.674;2023-04-28T11:54:09;100774.03;;;14.34
60731;BMP280;46580;52.114;11.674;2023-04-28T11:56:40;100759.97;;;14.37
60731;BMP280;46580;52.114;11.674;2023-04-28T11:59:08;100756.88;;;14.33
60731;BMP280;46580;52.114;11.674;2023-04-28T12:01:56;100757.66;;;14.52
60731;BMP280;46580;52.114;11.674;2023-04-28T12:04:28;100750.50;;;14.64
60731;BMP280;46580;52.114;11.674;2023-04-28T12:09:31;100750.94;;;14.69
60731;BMP280;46580;52.114;11.674;2023-04-28T12:12:04;100745.19;;;14.65
60731;BMP280;46580;52.114;11.674;2023-04-28T12:14:31;100740.97;;;14.64
60731;BMP280;46580;52.114;11.674;2023-04-28T12:17:00;100741.53;;;14.68
60731;BMP280;46580;52.114;11.674;2023-04-28T12:19:26;100739.91;;;14.57
60731;BMP280;46580;52.114;11.674;2023-04-28T12:21:59;100741.53;;;14.58
60731;BMP280;46580;52.114;11.674;2023-04-28T12:24:25;100734.66;;;14.76
60731;BMP280;46580;52.114;11.674;2023-04-28T12:26:51;100740.16;;;14.64
60731;BMP280;46580;52.114;11.674;2023-04-28T12:32:13;100732.78;;;14.69
60731;BMP280;46580;52.114;11.674;2023-04-28T12:34:39;100735.66;;;14.66
60731;BMP280;46580;52.114;11.674;2023-04-28T12:37:05;100737.34;;;14.48
60731;BMP280;46580;52.114;11.674;2023-04-28T12:39:35;100743.22;;;14.41
60731;BMP280;46580;52.114;11.674;2023-04-28T12:42:02;100740.22;;;14.45
60731;BMP280;46580;52.114;11.674;2023-04-28T12:44:33;100740.38;;;14.34
60731;BMP280;46580;52.114;11.674;2023-04-28T12:47:02;100744.56;;;14.45
60731;BMP280;46580;52.114;11.674;2023-04-28T12:49:36;100741.34;;;14.24
60731;BMP280;46580;52.114;11.674;2023-04-28T12:52:04;100739.31;;;14.18
60731;BMP280;46580;52.114;11.674;2023-04-28T12:54:30;100738.78;;;14.06
60731;BMP280;46580;52.114;11.674;2023-04-28T12:56:56;100736.19;;;14.06
60731;BMP280;46580;52.114;11.674;2023-04-28T12:59:22;100730.72;;;14.18
60731;BMP280;46580;52.114;11.674;2023-04-28T13:01:48;100729.63;;;14.11
60731;BMP280;46580;52.114;11.674;2023-04-28T13:04:18;100722.44;;;14.05
60731;BMP280;46580;52.114;11.674;2023-04-28T13:06:43;100722.16;;;14.08
60731;BMP280;46580;52.114;11.674;2023-04-28T13:09:13;100725.84;;;13.87
60731;BMP280;46580;52.114;11.674;2023-04-28T13:11:43;100724.09;;;13.88
60731;BMP280;46580;52.114;11.674;2023-04-28T13:14:10;100722.25;;;13.79
60731;BMP280;46580;52.114;11.674;2023-04-28T13:16:36;100714.63;;;13.77
60731;BMP280;46580;52.114;11.674;2023-04-28T13:19:08;100714.50;;;13.79
60731;BMP280;46580;52.114;11.674;2023-04-28T13:21:54;100710.16;;;13.61
60731;BMP280;46580;52.114;11.674;2023-04-28T13:24:20;100709.44;;;13.40
60731;BMP280;46580;52.114;11.674;2023-04-28T13:26:45;100713.06;;;13.29
60731;BMP280;46580;52.114;11.674;2023-04-28T13:29:10;100716.50;;;13.38
60731;BMP280;46580;52.114;11.674;2023-04-28T13:31:36;100715.16;;;13.44
60731;BMP280;46580;52.114;11.674;2023-04-28T13:34:01;100709.56;;;13.48
60731;BMP280;46580;52.114;11.674;2023-04-28T13:36:28;100701.00;;;13.57
60731;BMP280;46580;52.114;11.674;2023-04-28T13:38:55;100695.25;;;13.35
60731;BMP280;46580;52.114;11.674;2023-04-28T13:41:20;100693.63;;;13.34
60731;BMP280;46580;52.114;11.674;2023-04-28T13:43:47;100698.06;;;13.04
60731;BMP280;46580;52.114;11.674;2023-04-28T13:46:13;100686.78;;;13.15
60731;BMP280;46580;52.114;11.674;2023-04-28T13:48:39;100683.13;;;13.17
60731;BMP280;46580;52.114;11.674;2023-04-28T13:51:06;100683.91;;;13.08
60731;BMP280;46580;52.114;11.674;2023-04-28T13:53:32;100684.19;;;13.15
60731;BMP280;46580;52.114;11.674;2023-04-28T13:55:57;100674.97;;;13.21
60731;BMP280;46580;52.114;11.674;2023-04-28T13:58:24;100679.63;;;13.37
60731;BMP280;46580;52.114;11.674;2023-04-28T14:00:49;100669.84;;;13.40
60731;BMP280;46580;52.114;11.674;2023-04-28T14:03:15;100677.44;;;13.23
60731;BMP280;46580;52.114;11.674;2023-04-28T14:05:40;100672.94;;;13.34
60731;BMP280;46580;52.114;11.674;2023-04-28T14:08:07;100675.53;;;13.25
60731;BMP280;46580;52.114;11.674;2023-04-28T14:10:34;100675.25;;;13.28
60731;BMP280;46580;52.114;11.674;2023-04-28T14:12:59;100673.19;;;13.22
60731;BMP280;46580;52.114;11.674;2023-04-28T14:15:25;100675.09;;;13.11
60731;BMP280;46580;52.114;11.674;2023-04-28T14:17:51;100662.97;;;13.02
60731;BMP280;46580;52.114;11.674;2023-04-28T14:20:16;100667.19;;;13.03
60731;BMP280;46580;52.114;11.674;2023-04-28T14:22:42;100657.41;;;13.06